Arlington, Maryland
Current Conditions -  °F | °C
As of 11:54 AM on Thursday 18 Dec 2014 (Local Time) from KBWI Reporting Station
Broken Clouds Broken Clouds  
Wind Chill: 29°   Ceiling: 4000
Heat Index: 37°   Visibility: 10mi
Dew Point: 21°   Wind: 12mph
Humidity: 52%   Direction: 300°WNW
Pressure: 30.13"   Gusts: 23mph
Location:  39.3453°N, 76.6832°W
Report Text: KBWI 181654Z 30010G20KT 10SM BKN040 03/M06 A3013 RMK AO2 SLP203 T00281061
Loading
Personal Weather Stations






























Interactive Weather Map New forecast layout! Learn more

10-Day Weather Forecast

Advertisements
Track Severe Weather on mobile